createdAt,value
2023-05-16T00:02:26.641Z,77.13
2023-05-16T00:04:58.979Z,77.36
2023-05-16T00:07:30.909Z,77.26
2023-05-16T00:10:03.050Z,77.28
2023-05-16T00:12:36.818Z,77.14
2023-05-16T00:15:13.014Z,77.36
2023-05-16T00:17:46.942Z,77.11
2023-05-16T00:20:23.463Z,77.49
2023-05-16T00:22:55.969Z,77.49
2023-05-16T00:25:28.294Z,77.16
2023-05-16T00:28:00.274Z,76.83
2023-05-16T00:30:32.430Z,77.07
2023-05-16T00:33:04.590Z,77.19
2023-05-16T00:35:36.554Z,77.17
2023-05-16T00:38:08.622Z,77.84
2023-05-16T00:40:41.117Z,77.64
2023-05-16T00:43:14.960Z,77.38
2023-05-16T00:45:47.052Z,77.48
2023-05-16T00:48:19.860Z,77.45
2023-05-16T00:50:52.695Z,77.68
2023-05-16T00:53:26.664Z,77.66
2023-05-16T00:56:00.156Z,77.80
2023-05-16T00:58:34.353Z,77.51
2023-05-16T01:01:08.260Z,77.48
2023-05-16T01:03:42.794Z,77.12
2023-05-16T01:06:15.240Z,76.70
2023-05-16T01:08:47.276Z,76.93
2023-05-16T01:11:28.527Z,77.10
2023-05-16T01:14:12.122Z,77.13
2023-05-16T01:16:52.732Z,76.95
2023-05-16T01:19:48.389Z,76.98
2023-05-16T01:22:38.795Z,77.30
2023-05-16T01:25:23.278Z,76.68
2023-05-16T01:27:56.441Z,76.82
2023-05-16T01:30:28.620Z,76.63
2023-05-16T01:33:00.888Z,76.48
2023-05-16T01:35:33.096Z,76.20
2023-05-16T01:38:12.576Z,76.11
2023-05-16T01:40:53.230Z,76.01
2023-05-16T01:43:35.279Z,76.19
2023-05-16T01:46:12.057Z,76.05
2023-05-16T01:48:53.009Z,76.32
2023-05-16T01:51:30.668Z,76.48
2023-05-16T01:54:07.662Z,76.46
2023-05-16T01:56:40.459Z,76.44
2023-05-16T01:59:13.652Z,76.38
2023-05-16T02:01:45.582Z,75.78
2023-05-16T02:04:17.599Z,75.57
2023-05-16T02:06:50.294Z,75.59
2023-05-16T02:09:22.323Z,75.62
2023-05-16T02:11:54.629Z,75.51
2023-05-16T02:14:26.677Z,76.02
2023-05-16T02:16:58.822Z,76.82
2023-05-16T02:19:30.840Z,76.67
2023-05-16T02:22:02.811Z,76.70
2023-05-16T02:24:35.241Z,76.67
2023-05-16T02:27:08.311Z,76.76
2023-05-16T02:29:40.305Z,76.20
2023-05-16T02:32:12.444Z,76.02
2023-05-16T02:34:44.637Z,76.26
2023-05-16T02:37:16.744Z,76.61
2023-05-16T02:39:48.673Z,77.08
2023-05-16T02:42:21.452Z,77.60
2023-05-16T02:44:53.390Z,77.20
2023-05-16T02:47:25.679Z,76.98
2023-05-16T02:49:57.735Z,76.44
2023-05-16T02:52:29.675Z,76.40
2023-05-16T02:55:16.723Z,76.37
2023-05-16T02:57:53.000Z,76.56
2023-05-16T03:00:25.390Z,76.87
2023-05-16T03:02:58.225Z,77.54
2023-05-16T03:05:30.627Z,77.79
2023-05-16T03:08:02.792Z,77.23
2023-05-16T03:10:34.803Z,76.92
2023-05-16T03:13:06.977Z,76.84
2023-05-16T03:15:38.996Z,77.15
2023-05-16T03:18:11.770Z,76.68
2023-05-16T03:20:43.840Z,76.82
2023-05-16T03:23:15.961Z,76.79
2023-05-16T03:25:48.051Z,77.21
2023-05-16T03:28:20.143Z,76.81
2023-05-16T03:30:52.230Z,77.00
2023-05-16T03:33:24.932Z,76.96
2023-05-16T03:35:57.129Z,76.83
2023-05-16T03:38:29.123Z,77.43
2023-05-16T03:41:01.345Z,77.05
2023-05-16T03:43:33.412Z,77.53
2023-05-16T03:46:05.599Z,77.91
2023-05-16T03:48:37.386Z,77.64
2023-05-16T03:51:09.513Z,77.46
2023-05-16T03:53:41.570Z,78.00
2023-05-16T03:56:13.795Z,77.40
2023-05-16T03:58:46.109Z,77.73
2023-05-16T04:01:18.123Z,77.15
2023-05-16T04:03:50.913Z,76.78
2023-05-16T04:06:23.122Z,76.57
2023-05-16T04:08:55.201Z,77.08
2023-05-16T04:11:27.883Z,77.44
2023-05-16T04:14:01.924Z,77.54
2023-05-16T04:16:34.272Z,77.50
2023-05-16T04:19:06.407Z,77.47
2023-05-16T04:21:38.583Z,77.45
2023-05-16T04:24:11.683Z,77.68
2023-05-16T04:26:43.767Z,77.78
2023-05-16T04:29:15.746Z,77.61
2023-05-16T04:31:48.036Z,77.80
2023-05-16T04:34:20.151Z,77.54
2023-05-16T04:36:52.510Z,77.51
2023-05-16T04:39:24.588Z,77.70
2023-05-16T04:41:59.258Z,77.63
2023-05-16T04:44:31.777Z,77.29
2023-05-16T04:47:05.728Z,77.74
2023-05-16T04:49:37.959Z,78.06
2023-05-16T04:52:11.295Z,78.25
2023-05-16T04:54:44.479Z,77.56
2023-05-16T04:57:16.689Z,77.40
2023-05-16T04:59:48.905Z,77.17
2023-05-16T05:02:21.234Z,76.68
2023-05-16T05:04:55.009Z,76.85
2023-05-16T05:07:29.353Z,77.04
2023-05-16T05:10:03.260Z,76.69
2023-05-16T05:12:37.150Z,76.84
2023-05-16T05:15:10.828Z,76.99
2023-05-16T05:17:42.876Z,77.16
2023-05-16T05:20:16.395Z,77.10
2023-05-16T05:22:51.976Z,76.64
2023-05-16T05:25:24.094Z,76.49
2023-05-16T05:27:57.298Z,76.17
2023-05-16T05:30:29.573Z,75.58
2023-05-16T05:33:01.727Z,75.59
2023-05-16T05:35:33.774Z,75.56
2023-05-16T05:38:08.049Z,75.46
2023-05-16T05:40:40.432Z,75.35
2023-05-16T05:43:12.843Z,74.80
2023-05-16T05:45:46.304Z,74.81
2023-05-16T05:48:19.444Z,74.78
2023-05-16T05:50:53.621Z,74.13
2023-05-16T05:53:25.768Z,73.58
2023-05-16T05:55:57.799Z,73.04
2023-05-16T05:58:30.259Z,72.96
2023-05-16T06:01:02.589Z,72.95
2023-05-16T06:03:34.728Z,72.39
2023-05-16T06:06:07.622Z,72.83
2023-05-16T06:08:40.367Z,72.90
2023-05-16T06:11:12.445Z,72.49
2023-05-16T06:13:44.980Z,71.77
2023-05-16T06:16:17.287Z,71.16
2023-05-16T06:18:50.014Z,70.95
2023-05-16T06:21:22.359Z,70.50
2023-05-16T06:23:55.033Z,69.97
2023-05-16T06:26:27.527Z,69.20
2023-05-16T06:28:59.870Z,68.79
2023-05-16T06:31:33.042Z,68.72
2023-05-16T06:34:05.584Z,68.35
2023-05-16T06:36:37.587Z,68.26
2023-05-16T06:39:11.671Z,66.33
2023-05-16T06:41:44.429Z,66.72
2023-05-16T06:44:17.238Z,65.61
2023-05-16T06:46:53.542Z,65.07
2023-05-16T06:49:26.913Z,65.19
2023-05-16T06:52:00.020Z,65.76
2023-05-16T06:54:32.454Z,65.16
2023-05-16T06:57:09.833Z,64.85
2023-05-16T06:59:45.062Z,64.10
2023-05-16T07:02:17.641Z,64.27
2023-05-16T07:04:51.113Z,63.69
2023-05-16T07:07:24.696Z,64.00
2023-05-16T07:09:57.383Z,62.52
2023-05-16T07:12:30.366Z,63.29
2023-05-16T07:15:02.614Z,63.38
2023-05-16T07:17:35.755Z,62.38
2023-05-16T07:20:14.933Z,62.13
2023-05-16T07:22:47.368Z,61.72
2023-05-16T07:25:20.596Z,61.91
2023-05-16T07:27:53.290Z,62.08
2023-05-16T07:30:25.667Z,61.29
2023-05-16T07:33:00.906Z,61.46
2023-05-16T07:35:32.789Z,60.91
2023-05-16T07:38:04.860Z,60.70
2023-05-16T07:40:37.450Z,60.25
2023-05-16T07:43:09.684Z,60.41
2023-05-16T07:45:42.371Z,59.67
2023-05-16T07:48:15.760Z,58.72
2023-05-16T07:50:48.357Z,59.18
2023-05-16T07:53:28.205Z,58.74
2023-05-16T07:56:02.987Z,58.64
2023-05-16T07:58:36.084Z,56.65
2023-05-16T08:01:09.212Z,56.53
2023-05-16T08:03:41.614Z,57.08
2023-05-16T08:06:14.570Z,56.41
2023-05-16T08:08:46.813Z,56.35
2023-05-16T08:11:22.697Z,54.38
2023-05-16T08:13:55.319Z,54.34
2023-05-16T08:16:27.687Z,55.04
2023-05-16T08:19:01.173Z,55.16
2023-05-16T08:21:36.600Z,54.27
2023-05-16T08:24:11.591Z,54.25
2023-05-16T08:26:44.201Z,53.90
2023-05-16T08:29:17.542Z,54.24
2023-05-16T08:31:50.258Z,51.86
2023-05-16T08:34:22.528Z,50.80
2023-05-16T08:36:56.397Z,51.99
2023-05-16T08:39:28.783Z,52.10
2023-05-16T08:42:02.226Z,52.33
2023-05-16T08:44:35.806Z,51.71
2023-05-16T08:47:14.983Z,51.45
2023-05-16T08:49:52.705Z,51.08
2023-05-16T08:52:28.877Z,50.28
2023-05-16T08:55:10.840Z,50.38
2023-05-16T08:57:44.695Z,49.90
2023-05-16T09:00:19.709Z,48.94
2023-05-16T09:02:54.030Z,48.07
2023-05-16T09:05:29.358Z,49.68
2023-05-16T09:08:00.532Z,49.52
2023-05-16T09:10:32.668Z,48.35
2023-05-16T09:13:05.659Z,49.09
2023-05-16T09:15:38.055Z,48.04
2023-05-16T09:18:15.381Z,47.40
2023-05-16T09:20:53.764Z,47.56
2023-05-16T09:23:29.697Z,47.79
2023-05-16T09:26:02.341Z,47.63
2023-05-16T09:28:35.353Z,48.17
2023-05-16T09:31:21.004Z,48.49
2023-05-16T09:33:54.242Z,48.29
2023-05-16T09:36:26.876Z,48.68
2023-05-16T09:38:59.353Z,49.21
2023-05-16T09:41:34.263Z,50.20
2023-05-16T09:44:08.498Z,49.31
2023-05-16T09:46:42.718Z,50.37
2023-05-16T09:49:19.009Z,48.28
2023-05-16T09:51:52.663Z,48.34
2023-05-16T09:54:35.002Z,47.90
2023-05-16T09:57:08.620Z,48.18
2023-05-16T09:59:42.291Z,47.95
2023-05-16T10:02:16.200Z,48.03
2023-05-16T10:04:50.109Z,48.16
2023-05-16T10:07:24.838Z,47.51
2023-05-16T10:09:57.350Z,47.50
2023-05-16T10:12:33.279Z,46.64
2023-05-16T10:15:10.170Z,46.42
2023-05-16T10:17:45.618Z,46.22
2023-05-16T10:20:18.660Z,46.11
2023-05-16T10:22:54.927Z,46.61
2023-05-16T10:25:35.707Z,46.64
2023-05-16T10:28:11.400Z,45.46
2023-05-16T10:30:48.904Z,45.84
2023-05-16T10:33:22.453Z,45.56
2023-05-16T10:35:54.862Z,44.87
2023-05-16T10:38:28.794Z,45.07
2023-05-16T10:41:02.811Z,44.85
2023-05-16T10:43:40.460Z,44.81
2023-05-16T10:46:21.795Z,45.04
2023-05-16T10:48:57.120Z,45.55
2023-05-16T10:51:39.780Z,44.90
2023-05-16T10:54:16.208Z,44.76
2023-05-16T10:56:59.318Z,45.14
2023-05-16T10:59:44.566Z,44.62
2023-05-16T11:02:36.550Z,44.68
2023-05-16T11:05:20.516Z,45.21
2023-05-16T11:08:10.478Z,45.03
2023-05-16T11:10:45.032Z,45.78
2023-05-16T11:13:25.808Z,45.83
2023-05-16T11:16:31.546Z,45.98
2023-05-16T11:19:11.633Z,46.02
2023-05-16T11:22:23.098Z,45.92
2023-05-16T11:25:00.880Z,46.52
2023-05-16T11:27:35.036Z,46.05
2023-05-16T11:30:17.873Z,46.28
2023-05-16T11:32:51.132Z,46.48
2023-05-16T11:35:23.432Z,47.03
2023-05-16T11:37:56.536Z,47.46
2023-05-16T11:40:29.773Z,46.45
2023-05-16T11:43:07.113Z,45.68
2023-05-16T11:45:40.510Z,45.62
2023-05-16T11:48:19.146Z,45.79
2023-05-16T11:50:55.677Z,45.76
2023-05-16T11:53:28.744Z,45.72
2023-05-16T11:56:02.407Z,45.43
2023-05-16T11:58:34.741Z,45.47
2023-05-16T12:01:12.003Z,45.77
2023-05-16T12:03:44.690Z,46.34
2023-05-16T12:06:18.221Z,46.09
2023-05-16T12:08:55.586Z,46.12
2023-05-16T12:11:28.182Z,46.05
2023-05-16T12:14:00.384Z,46.57
2023-05-16T12:16:33.359Z,46.57
2023-05-16T12:19:06.540Z,46.56
2023-05-16T12:21:40.040Z,46.58
2023-05-16T12:24:18.195Z,46.62
2023-05-16T12:26:50.776Z,46.75
2023-05-16T12:29:26.751Z,47.15
2023-05-16T12:31:59.055Z,47.11
2023-05-16T12:34:32.858Z,47.14
2023-05-16T12:37:06.358Z,47.48
2023-05-16T12:39:41.154Z,47.72
2023-05-16T12:42:16.662Z,47.57
2023-05-16T12:44:50.315Z,47.77
2023-05-16T12:47:22.526Z,46.96
2023-05-16T12:49:54.960Z,47.22
2023-05-16T12:52:30.603Z,47.23
2023-05-16T12:55:03.313Z,47.76
2023-05-16T12:57:37.988Z,47.79
2023-05-16T13:00:15.019Z,48.13
2023-05-16T13:02:47.850Z,48.88
2023-05-16T13:05:23.581Z,48.43
2023-05-16T13:07:54.836Z,48.89
2023-05-16T13:10:27.606Z,48.97
2023-05-16T13:13:00.445Z,48.92
2023-05-16T13:15:33.456Z,49.10
2023-05-16T13:18:05.813Z,49.32
2023-05-16T13:20:39.637Z,49.37
2023-05-16T13:23:12.789Z,49.30
2023-05-16T13:25:49.289Z,49.46
2023-05-16T13:28:22.273Z,49.77
2023-05-16T13:30:54.933Z,50.06
2023-05-16T13:33:27.876Z,50.41
2023-05-16T13:36:00.017Z,50.75
2023-05-16T13:38:33.577Z,51.38
2023-05-16T13:41:07.571Z,51.91
2023-05-16T13:43:44.141Z,53.03
2023-05-16T13:46:17.329Z,53.65
2023-05-16T13:48:53.961Z,54.56
2023-05-16T13:51:27.706Z,54.67
2023-05-16T13:54:00.836Z,54.26
2023-05-16T13:56:33.801Z,54.70
2023-05-16T13:59:07.426Z,54.83
2023-05-16T14:01:40.008Z,54.81
2023-05-16T14:04:12.632Z,54.65
2023-05-16T14:06:44.803Z,54.85
2023-05-16T14:09:17.404Z,55.59
2023-05-16T14:11:49.496Z,55.75
2023-05-16T14:14:21.938Z,56.50
2023-05-16T14:16:53.984Z,56.50
2023-05-16T14:19:26.117Z,57.24
2023-05-16T14:21:58.281Z,58.21
2023-05-16T14:24:31.321Z,58.55
2023-05-16T14:27:05.816Z,59.48
2023-05-16T14:29:39.707Z,60.07
2023-05-16T14:32:14.740Z,60.37
2023-05-16T14:34:47.924Z,61.90
2023-05-16T14:37:20.424Z,61.97
2023-05-16T14:39:53.112Z,62.92
2023-05-16T14:42:25.946Z,63.82
2023-05-16T14:44:58.304Z,63.91
2023-05-16T14:47:31.396Z,64.48
2023-05-16T14:50:03.667Z,66.88
2023-05-16T14:52:35.974Z,66.70
2023-05-16T14:55:08.913Z,66.28
2023-05-16T14:57:42.763Z,67.42
2023-05-16T15:00:19.440Z,67.53
2023-05-16T15:02:51.754Z,67.33
2023-05-16T15:05:25.725Z,67.52
2023-05-16T15:07:58.137Z,67.90
2023-05-16T15:10:30.432Z,68.10
2023-05-16T15:13:02.557Z,67.50
2023-05-16T15:15:34.611Z,67.80
2023-05-16T15:18:07.018Z,67.80
2023-05-16T15:20:39.207Z,67.88
2023-05-16T15:23:12.165Z,67.82
2023-05-16T15:25:44.178Z,67.98
2023-05-16T15:28:16.833Z,68.20
2023-05-16T15:30:48.862Z,67.97
2023-05-16T15:33:20.972Z,68.11
2023-05-16T15:35:53.177Z,68.55
2023-05-16T15:38:25.313Z,69.52
2023-05-16T15:41:14.041Z,69.63
2023-05-16T15:43:49.398Z,70.82
2023-05-16T15:46:21.558Z,70.78
2023-05-16T15:48:53.885Z,70.40
2023-05-16T15:51:25.943Z,70.68
2023-05-16T15:53:57.930Z,71.30
2023-05-16T15:56:29.964Z,71.40
2023-05-16T15:59:02.005Z,71.43
2023-05-16T16:01:34.060Z,72.37
2023-05-16T16:04:06.317Z,71.72
2023-05-16T16:06:38.425Z,72.51
2023-05-16T16:09:11.247Z,72.29
2023-05-16T16:11:43.482Z,72.36
2023-05-16T16:14:15.579Z,72.77
2023-05-16T16:16:47.965Z,72.66
2023-05-16T16:19:20.292Z,72.59
2023-05-16T16:21:52.423Z,73.51
2023-05-16T16:24:24.654Z,74.82
2023-05-16T16:26:56.966Z,73.95
2023-05-16T16:29:29.335Z,74.43
2023-05-16T16:32:01.377Z,74.33
2023-05-16T16:34:33.485Z,74.45
2023-05-16T16:37:05.686Z,74.08
2023-05-16T16:39:38.629Z,74.36
2023-05-16T16:42:11.369Z,74.13
2023-05-16T16:44:43.428Z,74.38
2023-05-16T16:47:15.921Z,74.98
2023-05-16T16:49:48.106Z,75.45
2023-05-16T16:52:20.321Z,75.93
2023-05-16T16:54:52.656Z,77.69
2023-05-16T16:57:24.799Z,76.59
2023-05-16T16:59:59.614Z,75.88
2023-05-16T17:02:31.874Z,76.48
2023-05-16T17:05:05.032Z,76.82
2023-05-16T17:07:37.392Z,76.79
2023-05-16T17:10:11.374Z,76.95
2023-05-16T17:12:49.218Z,77.49
2023-05-16T17:15:21.378Z,78.76
2023-05-16T17:17:53.506Z,77.89
2023-05-16T17:20:25.649Z,77.74
2023-05-16T17:22:57.617Z,78.10
2023-05-16T17:25:30.468Z,78.97
2023-05-16T17:28:02.636Z,78.15
2023-05-16T17:30:34.793Z,78.37
2023-05-16T17:33:08.424Z,78.53
2023-05-16T17:35:40.949Z,78.54
2023-05-16T17:38:13.553Z,79.07
2023-05-16T17:40:45.713Z,79.01
2023-05-16T17:43:17.887Z,78.82
2023-05-16T17:45:49.908Z,78.88
2023-05-16T17:48:21.906Z,78.70
2023-05-16T17:50:54.098Z,79.48
2023-05-16T17:53:26.773Z,79.43
2023-05-16T17:55:58.797Z,79.77
2023-05-16T17:58:30.896Z,79.69
2023-05-16T18:01:03.359Z,79.92
2023-05-16T18:03:35.801Z,80.11
2023-05-16T18:06:08.340Z,80.44
2023-05-16T18:08:40.877Z,79.92
2023-05-16T18:11:12.897Z,79.91
2023-05-16T18:13:46.027Z,79.73
2023-05-16T18:16:18.237Z,80.25
2023-05-16T18:18:51.640Z,80.21
2023-05-16T18:21:23.797Z,80.84
2023-05-16T18:23:59.237Z,80.60
2023-05-16T18:26:31.991Z,80.14
2023-05-16T18:29:04.140Z,80.81
2023-05-16T18:31:38.203Z,80.82
2023-05-16T18:34:11.558Z,80.70
2023-05-16T18:36:43.638Z,80.68
2023-05-16T18:39:15.774Z,81.00
2023-05-16T18:41:48.508Z,80.55
2023-05-16T18:44:20.803Z,80.34
2023-05-16T18:46:52.840Z,80.29
2023-05-16T18:49:24.870Z,80.25
2023-05-16T18:51:57.978Z,80.32
2023-05-16T18:54:30.391Z,81.27
2023-05-16T18:57:03.689Z,81.15
2023-05-16T18:59:36.286Z,80.73
2023-05-16T19:02:08.948Z,80.88
2023-05-16T19:04:41.213Z,80.72
2023-05-16T19:07:14.058Z,80.79
2023-05-16T19:09:47.135Z,80.95
2023-05-16T19:12:20.770Z,80.91
2023-05-16T19:14:54.714Z,81.32
2023-05-16T19:17:27.108Z,81.25
2023-05-16T19:19:59.471Z,81.54
2023-05-16T19:22:31.673Z,81.45
2023-05-16T19:25:03.846Z,81.65
2023-05-16T19:27:35.905Z,81.68
2023-05-16T19:30:10.170Z,81.42
2023-05-16T19:32:42.158Z,81.57
2023-05-16T19:35:14.338Z,81.70
2023-05-16T19:37:49.623Z,81.32
2023-05-16T19:40:48.077Z,81.22
2023-05-16T19:43:20.767Z,80.98
2023-05-16T19:45:53.192Z,80.82
2023-05-16T19:48:25.284Z,80.85
2023-05-16T19:50:57.668Z,81.17
2023-05-16T19:53:29.705Z,81.11
2023-05-16T19:56:02.364Z,81.03
2023-05-16T19:58:34.369Z,81.09
2023-05-16T20:01:06.456Z,81.22
2023-05-16T20:03:38.594Z,81.22
2023-05-16T20:06:10.994Z,80.88
2023-05-16T20:08:43.575Z,81.07
2023-05-16T20:11:15.744Z,80.77
2023-05-16T20:13:47.801Z,80.86
2023-05-16T20:16:21.997Z,80.67
2023-05-16T20:18:54.816Z,80.85
2023-05-16T20:21:27.316Z,80.86
2023-05-16T20:23:59.387Z,81.21
2023-05-16T20:26:31.686Z,81.41
2023-05-16T20:29:03.794Z,81.54
2023-05-16T20:31:35.982Z,81.50
2023-05-16T20:34:08.070Z,81.32
2023-05-16T20:36:40.105Z,81.29
2023-05-16T20:39:12.154Z,81.38
2023-05-16T20:41:44.465Z,81.09
2023-05-16T20:44:18.349Z,81.14
2023-05-16T20:46:50.826Z,80.94
2023-05-16T20:49:22.900Z,81.74
2023-05-16T20:51:54.912Z,81.26
2023-05-16T20:54:27.308Z,81.27
2023-05-16T20:56:59.629Z,81.29
2023-05-16T20:59:32.506Z,81.49
2023-05-16T21:02:05.855Z,82.28
2023-05-16T21:04:38.277Z,81.88
2023-05-16T21:07:11.555Z,81.55
2023-05-16T21:09:44.111Z,81.49
2023-05-16T21:12:16.122Z,81.73
2023-05-16T21:14:48.092Z,81.59
2023-05-16T21:17:20.520Z,81.62
2023-05-16T21:19:54.526Z,82.15
2023-05-16T21:22:26.816Z,82.45
2023-05-16T21:24:58.997Z,82.45
2023-05-16T21:27:31.063Z,82.46
2023-05-16T21:30:03.187Z,82.89
2023-05-16T21:32:36.439Z,83.17
2023-05-16T21:35:09.808Z,83.15
2023-05-16T21:37:41.963Z,82.92
2023-05-16T21:40:19.187Z,83.40
2023-05-16T21:42:51.317Z,82.94
2023-05-16T21:45:23.449Z,83.11
2023-05-16T21:47:55.500Z,82.83
2023-05-16T21:50:27.782Z,83.08
2023-05-16T21:52:59.935Z,83.49
2023-05-16T21:55:31.922Z,83.15
2023-05-16T21:58:03.929Z,83.42
2023-05-16T22:00:36.601Z,83.60
2023-05-16T22:03:10.917Z,83.84
2023-05-16T22:05:43.022Z,83.67
2023-05-16T22:08:15.053Z,83.61
2023-05-16T22:10:47.298Z,83.69
2023-05-16T22:13:20.294Z,83.48
2023-05-16T22:16:04.000Z,83.32
2023-05-16T22:18:37.144Z,84.23
2023-05-16T22:21:09.606Z,83.81
2023-05-16T22:23:41.603Z,83.35
2023-05-16T22:26:14.334Z,82.88
2023-05-16T22:28:46.308Z,82.87
2023-05-16T22:31:18.377Z,83.03
2023-05-16T22:33:50.676Z,82.99
2023-05-16T22:36:22.673Z,82.96
2023-05-16T22:38:54.681Z,83.17
2023-05-16T22:41:29.264Z,83.08
2023-05-16T22:44:01.263Z,82.54
2023-05-16T22:46:33.344Z,82.74
2023-05-16T22:49:05.396Z,83.06
2023-05-16T22:51:37.460Z,82.95
2023-05-16T22:54:09.913Z,83.38
2023-05-16T22:56:42.038Z,83.53
2023-05-16T22:59:14.955Z,83.56
2023-05-16T23:01:46.977Z,84.16
2023-05-16T23:04:19.097Z,83.24
2023-05-16T23:06:51.442Z,83.20
2023-05-16T23:09:23.560Z,83.38
2023-05-16T23:11:55.617Z,83.86
2023-05-16T23:14:27.745Z,83.82
2023-05-16T23:16:59.724Z,83.87
2023-05-16T23:19:31.988Z,83.91
2023-05-16T23:22:06.194Z,83.85
2023-05-16T23:24:38.353Z,83.98
2023-05-16T23:27:10.355Z,83.84
2023-05-16T23:29:42.339Z,84.09
2023-05-16T23:32:14.881Z,84.22
2023-05-16T23:34:46.906Z,84.46
2023-05-16T23:37:19.022Z,84.97
2023-05-16T23:39:51.095Z,85.03
2023-05-16T23:42:23.216Z,84.73
2023-05-16T23:44:55.259Z,84.55
2023-05-16T23:47:27.701Z,85.32
2023-05-16T23:49:59.747Z,85.03
2023-05-16T23:52:31.817Z,85.47
2023-05-16T23:55:03.981Z,84.68
2023-05-16T23:57:35.988Z,85.33
